createdAt,value
2024-02-08T00:00:29.095Z,93867.59
2024-02-08T00:02:57.676Z,93860.16
2024-02-08T00:05:27.905Z,93867.50
2024-02-08T00:07:56.522Z,93866.78
2024-02-08T00:10:25.043Z,93875.47
2024-02-08T00:12:53.611Z,93866.78
2024-02-08T00:15:23.502Z,93873.75
2024-02-08T00:17:52.247Z,93878.59
2024-02-08T00:20:21.087Z,93876.94
2024-02-08T00:22:50.936Z,93869.81
2024-02-08T00:25:21.996Z,93866.13
2024-02-08T00:27:50.411Z,93867.56
2024-02-08T00:30:19.240Z,93866.53
2024-02-08T00:32:50.407Z,93873.16
2024-02-08T00:35:21.131Z,93873.63
2024-02-08T00:37:51.390Z,93866.06
2024-02-08T00:40:21.157Z,93863.63
2024-02-08T00:42:49.600Z,93866.78
2024-02-08T00:45:23.298Z,93858.66
2024-02-08T00:47:55.689Z,93863.66
2024-02-08T00:50:25.577Z,93862.19
2024-02-08T00:52:54.412Z,93865.03
2024-02-08T00:55:23.415Z,93862.59
2024-02-08T00:57:54.698Z,93867.66
2024-02-08T01:00:23.130Z,93858.38
2024-02-08T01:02:53.050Z,93858.72
2024-02-08T01:05:22.291Z,93855.69
2024-02-08T01:07:50.811Z,93857.25
2024-02-08T01:10:19.439Z,93855.88
2024-02-08T01:12:48.086Z,93859.03
2024-02-08T01:15:16.781Z,93845.94
2024-02-08T01:17:45.314Z,93846.03
2024-02-08T01:20:22.871Z,93847.22
2024-02-08T01:22:52.518Z,93850.94
2024-02-08T01:25:21.189Z,93846.72
2024-02-08T01:27:49.687Z,93852.34
2024-02-08T01:30:18.129Z,93850.22
2024-02-08T01:32:50.356Z,93852.06
2024-02-08T01:35:23.549Z,93851.44
2024-02-08T01:37:52.731Z,93853.00
2024-02-08T01:40:22.244Z,93850.66
2024-02-08T01:42:58.637Z,93853.94
2024-02-08T01:45:34.154Z,93840.47
2024-02-08T01:48:05.060Z,93834.28
2024-02-08T01:50:38.945Z,93840.03
2024-02-08T01:53:14.837Z,93828.84
2024-02-08T01:55:51.527Z,93831.38
2024-02-08T01:58:22.536Z,93824.03
2024-02-08T02:00:54.271Z,93824.78
2024-02-08T02:03:24.851Z,93832.13
2024-02-08T02:05:54.899Z,93821.34
2024-02-08T02:08:27.925Z,93826.88
2024-02-08T02:11:08.870Z,93824.50
2024-02-08T02:13:41.988Z,93821.50
2024-02-08T02:16:10.864Z,93825.69
2024-02-08T02:18:40.703Z,93822.69
2024-02-08T02:21:15.069Z,93816.91
2024-02-08T02:23:46.878Z,93819.19
2024-02-08T02:26:19.967Z,93822.72
2024-02-08T02:28:49.525Z,93829.97
2024-02-08T02:31:18.556Z,93818.66
2024-02-08T02:33:50.084Z,93810.72
2024-02-08T02:36:18.916Z,93808.69
2024-02-08T02:38:48.824Z,93805.66
2024-02-08T02:41:19.539Z,93816.50
2024-02-08T02:43:48.774Z,93816.34
2024-02-08T02:46:19.577Z,93816.91
2024-02-08T02:48:48.154Z,93812.72
2024-02-08T02:51:16.768Z,93814.06
2024-02-08T02:53:46.495Z,93819.72
2024-02-08T02:56:18.789Z,93819.72
2024-02-08T02:58:47.664Z,93825.81
2024-02-08T03:01:16.139Z,93823.88
2024-02-08T03:03:44.824Z,93811.84
2024-02-08T03:06:16.729Z,93805.13
2024-02-08T03:08:47.076Z,93804.53
2024-02-08T03:11:17.492Z,93810.81
2024-02-08T03:13:48.034Z,93816.13
2024-02-08T03:16:18.543Z,93821.94
2024-02-08T03:18:50.460Z,93806.19
2024-02-08T03:21:23.183Z,93813.03
2024-02-08T03:23:57.909Z,93797.53
2024-02-08T03:26:28.045Z,93807.06
2024-02-08T03:28:56.718Z,93808.69
2024-02-08T03:31:27.514Z,93804.56
2024-02-08T03:33:56.420Z,93799.28
2024-02-08T03:36:25.460Z,93793.88
2024-02-08T03:38:54.630Z,93797.03
2024-02-08T03:41:27.448Z,93790.72
2024-02-08T03:43:58.678Z,93787.41
2024-02-08T03:46:27.964Z,93788.75
2024-02-08T03:48:57.738Z,93787.66
2024-02-08T03:51:26.406Z,93782.31
2024-02-08T03:53:54.853Z,93780.72
2024-02-08T03:56:28.149Z,93790.69
2024-02-08T03:59:01.111Z,93797.44
2024-02-08T04:01:31.514Z,93799.75
2024-02-08T04:04:13.308Z,93802.66
2024-02-08T04:07:01.743Z,93798.34
2024-02-08T04:09:40.383Z,93790.84
2024-02-08T04:12:26.662Z,93800.00
2024-02-08T04:15:13.838Z,93807.13
2024-02-08T04:18:00.058Z,93799.69
2024-02-08T04:20:46.273Z,93799.03
2024-02-08T04:23:34.379Z,93810.53
2024-02-08T04:26:24.591Z,93801.53
2024-02-08T04:29:12.364Z,93816.81
2024-02-08T04:31:59.780Z,93813.28
2024-02-08T04:34:45.645Z,93814.13
2024-02-08T04:37:31.392Z,93810.03
2024-02-08T04:40:17.409Z,93807.19
2024-02-08T04:43:03.371Z,93808.00
2024-02-08T04:45:49.302Z,93802.38
2024-02-08T04:48:36.811Z,93812.00
2024-02-08T04:51:28.063Z,93811.81
2024-02-08T04:53:56.612Z,93812.06
2024-02-08T04:56:25.531Z,93816.66
2024-02-08T05:01:27.477Z,93813.75
2024-02-08T05:03:59.446Z,93808.25
2024-02-08T05:06:28.261Z,93801.69
2024-02-08T05:09:00.888Z,93799.22
2024-02-08T05:11:31.049Z,93811.06
2024-02-08T05:14:02.952Z,93817.97
2024-02-08T05:16:37.915Z,93811.19
2024-02-08T05:19:10.887Z,93820.44
2024-02-08T05:21:42.594Z,93826.44
2024-02-08T05:24:15.120Z,93829.81
2024-02-08T05:26:44.719Z,93827.44
2024-02-08T05:29:20.867Z,93820.34
2024-02-08T05:31:51.127Z,93830.50
2024-02-08T05:34:22.893Z,93831.75
2024-02-08T05:36:53.777Z,93829.03
2024-02-08T05:39:26.677Z,93839.31
2024-02-08T05:41:58.431Z,93840.00
2024-02-08T05:44:31.941Z,93832.53
2024-02-08T05:47:10.829Z,93842.69
2024-02-08T05:49:47.561Z,93837.13
2024-02-08T05:52:17.237Z,93838.69
2024-02-08T05:54:48.075Z,93841.88
2024-02-08T05:57:17.049Z,93857.53
2024-02-08T05:59:47.196Z,93857.66
2024-02-08T06:02:25.401Z,93851.19
2024-02-08T06:05:10.164Z,93853.00
2024-02-08T06:07:39.336Z,93858.75
2024-02-08T06:10:15.905Z,93868.53
2024-02-08T06:12:46.357Z,93869.56
2024-02-08T06:15:26.039Z,93892.78
2024-02-08T06:18:00.040Z,93885.00
2024-02-08T06:20:37.701Z,93874.00
2024-02-08T06:35:47.216Z,93890.38
2024-02-08T06:38:29.604Z,93886.19
2024-02-08T06:40:58.186Z,93877.53
2024-02-08T06:43:43.617Z,93885.34
2024-02-08T06:46:19.645Z,93885.03
2024-02-08T06:49:10.303Z,93885.63
2024-02-08T06:51:57.887Z,93885.41
2024-02-08T06:54:43.787Z,93903.91
2024-02-08T06:57:29.941Z,93897.38
2024-02-08T07:00:16.343Z,93879.59
2024-02-08T07:03:02.296Z,93882.00
2024-02-08T07:05:50.551Z,93873.59
2024-02-08T07:08:37.946Z,93877.75
2024-02-08T07:11:23.896Z,93872.53
2024-02-08T07:14:09.963Z,93864.34
2024-02-08T07:16:56.030Z,93870.81
2024-02-08T07:19:41.953Z,93853.84
2024-02-08T07:22:28.038Z,93853.56
2024-02-08T07:25:15.373Z,93859.50
2024-02-08T07:28:01.355Z,93844.44
2024-02-08T07:30:47.457Z,93843.09
2024-02-08T07:33:33.590Z,93853.63
2024-02-08T07:36:22.942Z,93838.44
2024-02-08T07:39:11.544Z,93832.97
2024-02-08T07:41:41.753Z,93835.22
2024-02-08T07:44:11.040Z,93840.19
2024-02-08T07:46:41.514Z,93834.25
2024-02-08T07:49:10.603Z,93831.38
2024-02-08T07:51:51.490Z,93834.56
2024-02-08T07:54:22.902Z,93826.53
2024-02-08T07:57:01.768Z,93823.25
2024-02-08T07:59:30.173Z,93823.88
2024-02-08T08:01:59.474Z,93819.56
2024-02-08T08:04:53.133Z,93815.31
2024-02-08T08:07:25.499Z,93828.72
2024-02-08T08:10:01.713Z,93812.72
2024-02-08T08:12:32.601Z,93823.44
2024-02-08T08:15:15.061Z,93819.72
2024-02-08T08:17:44.625Z,93824.41
2024-02-08T08:20:33.922Z,93827.25
2024-02-08T08:23:08.651Z,93828.50
2024-02-08T08:26:01.732Z,93820.69
2024-02-08T08:28:53.156Z,93826.00
2024-02-08T08:31:38.992Z,93824.47
2024-02-08T08:34:27.298Z,93819.13
2024-02-08T08:37:03.794Z,93817.25
2024-02-08T08:39:48.458Z,93811.31
2024-02-08T08:42:25.034Z,93815.03
2024-02-08T08:45:01.121Z,93820.94
2024-02-08T08:47:30.297Z,93802.69
2024-02-08T08:49:59.025Z,93806.13
2024-02-08T08:52:27.704Z,93815.72
2024-02-08T08:55:11.969Z,93817.22
2024-02-08T08:57:40.614Z,93822.50
2024-02-08T09:00:21.440Z,93823.31
2024-02-08T09:02:52.325Z,93823.25
2024-02-08T09:05:32.373Z,93811.03
2024-02-08T09:08:09.812Z,93810.84
2024-02-08T09:10:42.638Z,93807.03
2024-02-08T09:13:17.513Z,93801.91
2024-02-08T09:15:57.621Z,93802.66
2024-02-08T09:18:47.590Z,93807.97
2024-02-08T09:21:16.095Z,93792.09
2024-02-08T09:23:45.836Z,93793.94
2024-02-08T09:26:14.468Z,93806.75
2024-02-08T09:28:44.551Z,93804.59
2024-02-08T09:31:18.659Z,93802.28
2024-02-08T09:33:49.605Z,93797.94
2024-02-08T09:36:18.561Z,93793.75
2024-02-08T09:38:52.218Z,93790.66
2024-02-08T09:41:25.920Z,93784.44
2024-02-08T09:43:59.292Z,93783.53
2024-02-08T09:46:45.862Z,93775.38
2024-02-08T09:49:16.338Z,93780.69
2024-02-08T09:51:54.795Z,93776.88
2024-02-08T09:54:33.701Z,93777.16
2024-02-08T09:57:23.014Z,93772.59
2024-02-08T10:00:02.798Z,93761.22
2024-02-08T10:02:36.920Z,93762.88
2024-02-08T10:05:26.652Z,93760.44
2024-02-08T10:08:09.999Z,93756.19
2024-02-08T10:10:45.963Z,93755.75
2024-02-08T10:13:28.473Z,93749.28
2024-02-08T10:15:57.898Z,93741.94
2024-02-08T10:18:40.195Z,93738.84
2024-02-08T10:21:14.939Z,93733.31
2024-02-08T10:24:14.191Z,93732.75
2024-02-08T10:26:47.113Z,93733.66
2024-02-08T10:29:16.746Z,93729.59
2024-02-08T10:31:55.524Z,93720.16
2024-02-08T10:34:35.677Z,93722.66
2024-02-08T10:37:10.318Z,93709.19
2024-02-08T10:39:59.326Z,93714.00
2024-02-08T10:42:31.263Z,93709.94
2024-02-08T10:45:07.078Z,93711.50
2024-02-08T10:47:42.405Z,93713.84
2024-02-08T10:50:22.038Z,93700.09
2024-02-08T10:52:53.374Z,93703.88
2024-02-08T10:55:32.080Z,93694.03
2024-02-08T10:58:22.540Z,93686.53
2024-02-08T11:01:08.221Z,93693.88
2024-02-08T11:03:54.035Z,93684.03
2024-02-08T11:06:33.714Z,93690.78
2024-02-08T11:09:15.905Z,93678.59
2024-02-08T11:12:01.474Z,93678.44
2024-02-08T11:14:42.211Z,93666.28
2024-02-08T11:17:21.727Z,93672.03
2024-02-08T11:19:58.051Z,93672.50
2024-02-08T11:22:41.791Z,93669.84
2024-02-08T11:25:22.170Z,93661.28
2024-02-08T11:27:52.541Z,93655.78
2024-02-08T11:30:35.204Z,93657.19
2024-02-08T11:33:05.865Z,93646.44
2024-02-08T11:35:36.925Z,93645.97
2024-02-08T11:38:18.772Z,93653.31
2024-02-08T11:40:49.112Z,93648.63
2024-02-08T11:43:26.471Z,93634.25
2024-02-08T11:45:57.778Z,93639.25
2024-02-08T11:48:28.781Z,93634.88
2024-02-08T11:51:00.022Z,93628.31
2024-02-08T11:53:34.811Z,93633.94
2024-02-08T11:56:09.153Z,93628.16
2024-02-08T11:58:41.581Z,93628.50
2024-02-08T12:01:11.434Z,93628.00
2024-02-08T12:03:43.100Z,93620.25
2024-02-08T12:06:24.935Z,93619.75
2024-02-08T12:08:58.671Z,93615.06
2024-02-08T12:11:31.796Z,93605.41
2024-02-08T12:14:11.374Z,93602.22
2024-02-08T12:16:52.271Z,93599.53
2024-02-08T12:19:22.890Z,93603.03
2024-02-08T12:21:57.974Z,93595.25
2024-02-08T12:24:33.021Z,93595.50
2024-02-08T12:27:13.796Z,93592.69
2024-02-08T12:29:52.010Z,93588.63
2024-02-08T12:32:31.725Z,93583.16
2024-02-08T12:35:14.869Z,93578.31
2024-02-08T12:37:46.663Z,93567.53
2024-02-08T12:40:19.858Z,93566.44
2024-02-08T12:42:49.285Z,93571.91
2024-02-08T12:45:18.765Z,93569.41
2024-02-08T12:47:53.381Z,93557.59
2024-02-08T12:50:27.165Z,93564.81
2024-02-08T12:52:59.084Z,93565.91
2024-02-08T12:55:31.519Z,93553.88
2024-02-08T12:58:04.526Z,93558.38
2024-02-08T13:00:36.111Z,93553.41
2024-02-08T13:03:08.300Z,93551.72
2024-02-08T13:05:41.790Z,93542.38
2024-02-08T13:08:11.704Z,93546.91
2024-02-08T13:10:41.770Z,93543.59
2024-02-08T13:13:12.991Z,93533.94
2024-02-08T13:15:44.209Z,93538.44
2024-02-08T13:18:18.488Z,93544.22
2024-02-08T13:20:49.709Z,93537.41
2024-02-08T13:23:18.206Z,93543.03
2024-02-08T13:25:48.163Z,93539.88
2024-02-08T13:28:17.034Z,93542.66
2024-02-08T13:30:49.400Z,93538.59
2024-02-08T13:33:18.937Z,93533.00
2024-02-08T13:35:47.963Z,93536.09
2024-02-08T13:38:17.853Z,93532.81
2024-02-08T13:40:52.393Z,93538.56
2024-02-08T13:43:21.744Z,93531.09
2024-02-08T13:45:55.826Z,93537.19
2024-02-08T13:48:30.353Z,93530.66
2024-02-08T13:51:07.342Z,93528.34
2024-02-08T13:53:38.685Z,93542.38
2024-02-08T13:56:13.009Z,93537.22
2024-02-08T13:58:42.106Z,93539.13
2024-02-08T14:01:13.064Z,93523.06
2024-02-08T14:03:41.925Z,93531.31
2024-02-08T14:06:11.881Z,93527.56
2024-02-08T14:08:48.013Z,93531.31
2024-02-08T14:11:21.376Z,93529.25
2024-02-08T14:13:51.948Z,93525.25
2024-02-08T14:16:22.836Z,93526.16
2024-02-08T14:18:53.813Z,93519.00
2024-02-08T14:21:27.236Z,93518.66
2024-02-08T14:24:02.120Z,93527.88
2024-02-08T14:26:38.414Z,93528.19
2024-02-08T14:29:08.901Z,93533.94
2024-02-08T14:31:40.596Z,93526.31
2024-02-08T14:34:11.725Z,93530.69
2024-02-08T14:36:48.065Z,93532.84
2024-02-08T14:39:30.971Z,93533.19
2024-02-08T14:42:02.320Z,93542.66
2024-02-08T14:44:42.142Z,93535.19
2024-02-08T14:47:16.842Z,93543.59
2024-02-08T14:50:00.584Z,93543.25
2024-02-08T14:52:37.207Z,93551.91
2024-02-08T14:55:22.428Z,93546.72
2024-02-08T14:57:59.943Z,93543.06
2024-02-08T15:00:46.035Z,93546.09
2024-02-08T15:03:23.230Z,93556.94
2024-02-08T15:06:01.181Z,93546.44
2024-02-08T15:08:47.058Z,93548.09
2024-02-08T15:11:39.921Z,93556.88
2024-02-08T15:14:17.978Z,93555.06
2024-02-08T15:16:48.000Z,93556.19
2024-02-08T15:19:20.872Z,93560.44
2024-02-08T15:21:54.178Z,93566.72
2024-02-08T15:24:23.068Z,93569.41
2024-02-08T15:27:06.724Z,93573.72
2024-02-08T15:29:37.982Z,93577.75
2024-02-08T15:32:12.099Z,93574.31
2024-02-08T15:34:48.554Z,93580.69
2024-02-08T15:37:21.770Z,93580.28
2024-02-08T15:40:10.611Z,93587.31
2024-02-08T15:42:45.016Z,93586.06
2024-02-08T15:45:15.877Z,93588.31
2024-02-08T15:48:03.144Z,93592.28
2024-02-08T15:50:38.238Z,93589.66
2024-02-08T15:53:17.912Z,93599.03
2024-02-08T15:55:50.730Z,93594.13
2024-02-08T15:58:20.380Z,93588.28
2024-02-08T16:01:09.048Z,93599.53
2024-02-08T16:03:42.179Z,93604.22
2024-02-08T16:06:29.721Z,93596.94
2024-02-08T16:09:02.916Z,93600.78
2024-02-08T16:11:31.084Z,93595.56
2024-02-08T16:14:04.838Z,93605.03
2024-02-08T16:16:35.885Z,93602.25
2024-02-08T16:19:18.437Z,93607.53
2024-02-08T16:21:47.094Z,93608.06
2024-02-08T16:24:19.235Z,93604.44
2024-02-08T16:26:54.449Z,93602.59
2024-02-08T16:29:35.853Z,93599.25
2024-02-08T16:32:21.016Z,93597.41
2024-02-08T16:34:54.827Z,93602.34
2024-02-08T16:37:44.558Z,93605.56
2024-02-08T16:40:18.595Z,93616.16
2024-02-08T16:42:53.506Z,93618.44
2024-02-08T16:45:35.460Z,93622.16
2024-02-08T16:48:15.362Z,93616.66
2024-02-08T16:50:47.551Z,93612.09
2024-02-08T16:53:20.670Z,93608.59
2024-02-08T16:55:59.565Z,93606.81
2024-02-08T16:58:33.635Z,93618.50
2024-02-08T17:01:07.018Z,93616.41
2024-02-08T17:03:52.064Z,93628.09
2024-02-08T17:06:27.924Z,93632.91
2024-02-08T17:09:14.610Z,93634.47
2024-02-08T17:11:45.535Z,93639.53
2024-02-08T17:14:36.873Z,93645.38
2024-02-08T17:17:23.199Z,93637.31
2024-02-08T17:20:04.545Z,93652.31
2024-02-08T17:22:47.046Z,93653.41
2024-02-08T17:25:26.674Z,93663.91
2024-02-08T17:28:08.115Z,93657.63
2024-02-08T17:31:05.905Z,93664.44
2024-02-08T17:33:48.233Z,93662.81
2024-02-08T17:36:18.903Z,93661.81
2024-02-08T17:38:47.494Z,93657.56
2024-02-08T17:41:20.452Z,93658.66
2024-02-08T17:43:56.565Z,93662.59
2024-02-08T17:46:25.974Z,93659.97
2024-02-08T17:48:56.814Z,93661.00
2024-02-08T17:51:40.026Z,93650.28
2024-02-08T17:54:16.099Z,93651.56
2024-02-08T17:56:46.877Z,93662.59
2024-02-08T17:59:18.229Z,93663.38
2024-02-08T18:01:56.166Z,93672.28
2024-02-08T18:04:31.057Z,93671.50
2024-02-08T18:07:09.413Z,93688.00
2024-02-08T18:09:41.960Z,93670.72
2024-02-08T18:12:22.595Z,93672.28
2024-02-08T18:14:57.611Z,93672.31
2024-02-08T18:17:26.623Z,93674.94
2024-02-08T18:19:56.288Z,93674.94
2024-02-08T18:22:31.543Z,93679.63
2024-02-08T18:25:01.478Z,93684.84
2024-02-08T18:27:33.999Z,93676.47
2024-02-08T18:30:05.953Z,93669.13
2024-02-08T18:32:35.958Z,93665.19
2024-02-08T18:35:08.431Z,93667.56
2024-02-08T18:37:39.406Z,93669.91
2024-02-08T18:40:18.386Z,93668.34
2024-02-08T18:42:49.186Z,93668.63
2024-02-08T18:45:19.033Z,93680.66
2024-02-08T18:47:51.535Z,93672.28
2024-02-08T18:50:25.838Z,93679.06
2024-02-08T18:52:56.179Z,93678.56
2024-02-08T18:55:38.793Z,93688.22
2024-02-08T18:58:10.316Z,93686.13
2024-02-08T19:00:42.488Z,93691.09
2024-02-08T19:03:16.726Z,93695.00
2024-02-08T19:05:49.526Z,93707.00
2024-02-08T19:08:21.377Z,93708.03
2024-02-08T19:10:59.272Z,93710.09
2024-02-08T19:13:29.735Z,93715.03
2024-02-08T19:16:02.979Z,93709.03
2024-02-08T19:18:33.719Z,93704.81
2024-02-08T19:21:02.632Z,93706.06
2024-02-08T19:23:35.279Z,93711.03
2024-02-08T19:26:09.714Z,93714.44
2024-02-08T19:28:38.473Z,93707.59
2024-02-08T19:31:10.923Z,93701.88
2024-02-08T19:33:43.304Z,93711.81
2024-02-08T19:36:14.946Z,93716.16
2024-02-08T19:38:46.141Z,93716.63
2024-02-08T19:41:16.612Z,93711.13
2024-02-08T19:43:46.364Z,93708.41
2024-02-08T19:46:18.516Z,93712.38
2024-02-08T19:48:53.944Z,93708.19
2024-02-08T19:51:26.165Z,93715.84
2024-02-08T19:53:57.269Z,93709.41
2024-02-08T19:56:27.725Z,93717.03
2024-02-08T19:58:59.580Z,93711.75
2024-02-08T20:01:29.231Z,93704.78
2024-02-08T20:04:02.638Z,93699.59
2024-02-08T20:06:31.636Z,93702.28
2024-02-08T20:09:01.581Z,93709.59
2024-02-08T20:11:30.339Z,93710.63
2024-02-08T20:14:00.360Z,93713.72
2024-02-08T20:16:32.712Z,93708.81
2024-02-08T20:19:02.648Z,93703.59
2024-02-08T20:21:32.909Z,93715.13
2024-02-08T20:24:04.331Z,93716.94
2024-02-08T20:26:32.814Z,93714.19
2024-02-08T20:29:05.855Z,93714.72
2024-02-08T20:31:36.375Z,93721.69
2024-02-08T20:34:06.675Z,93722.66
2024-02-08T20:36:35.301Z,93721.34
2024-02-08T20:39:19.308Z,93729.19
2024-02-08T20:41:50.759Z,93726.53
2024-02-08T20:44:22.574Z,93728.44
2024-02-08T20:46:52.558Z,93733.50
2024-02-08T20:49:23.030Z,93733.16
2024-02-08T20:51:52.467Z,93732.63
2024-02-08T20:54:22.447Z,93736.53
2024-02-08T20:56:54.261Z,93735.97
2024-02-08T20:59:24.907Z,93733.34
2024-02-08T21:01:53.544Z,93737.81
2024-02-08T21:04:22.088Z,93741.75
2024-02-08T21:06:50.723Z,93740.09
2024-02-08T21:09:22.181Z,93736.41
2024-02-08T21:11:52.300Z,93742.72
2024-02-08T21:14:22.528Z,93740.06
2024-02-08T21:16:55.309Z,93733.31
2024-02-08T21:19:24.628Z,93740.06
2024-02-08T21:21:54.695Z,93729.31
2024-02-08T21:24:24.147Z,93737.00
2024-02-08T21:26:55.589Z,93735.44
2024-02-08T21:29:27.299Z,93742.72
2024-02-08T21:31:57.617Z,93747.69
2024-02-08T21:34:26.306Z,93739.09
2024-02-08T21:36:54.930Z,93752.13
2024-02-08T21:39:32.975Z,93754.75
2024-02-08T21:42:07.885Z,93760.00
2024-02-08T21:44:39.786Z,93756.75
2024-02-08T21:47:08.955Z,93764.03
2024-02-08T21:49:39.516Z,93761.31
2024-02-08T21:52:09.497Z,93755.97
2024-02-08T21:54:40.106Z,93766.47
2024-02-08T21:57:09.927Z,93757.56
2024-02-08T21:59:38.402Z,93752.38
2024-02-08T22:02:09.287Z,93755.78
2024-02-08T22:04:39.225Z,93744.91
2024-02-08T22:07:08.157Z,93745.75
2024-02-08T22:09:36.768Z,93742.50
2024-02-08T22:12:06.366Z,93747.72
2024-02-08T22:14:39.151Z,93741.84
2024-02-08T22:17:10.800Z,93746.59
2024-02-08T22:19:44.762Z,93741.09
2024-02-08T22:22:14.671Z,93725.00
2024-02-08T22:24:43.213Z,93721.66
2024-02-08T22:27:11.939Z,93706.53
2024-02-08T22:29:42.208Z,93706.03
2024-02-08T22:32:12.762Z,93710.50
2024-02-08T22:34:42.705Z,93712.13
2024-02-08T22:37:11.672Z,93713.13
2024-02-08T22:39:40.253Z,93704.81
2024-02-08T22:42:08.867Z,93711.63
2024-02-08T22:44:39.304Z,93706.16
2024-02-08T22:47:09.335Z,93713.47
2024-02-08T22:49:38.281Z,93717.66
2024-02-08T22:52:07.875Z,93719.50
2024-02-08T22:54:37.497Z,93724.19
2024-02-08T22:57:06.874Z,93720.22
2024-02-08T22:59:35.783Z,93726.22
2024-02-08T23:02:08.173Z,93719.97
2024-02-08T23:04:39.037Z,93718.03
2024-02-08T23:07:08.991Z,93721.38
2024-02-08T23:09:37.632Z,93715.13
2024-02-08T23:12:11.849Z,93709.13
2024-02-08T23:14:40.794Z,93710.16
2024-02-08T23:17:10.379Z,93700.97
2024-02-08T23:19:41.031Z,93706.66
2024-02-08T23:22:09.548Z,93705.84
2024-02-08T23:24:41.583Z,93704.06
2024-02-08T23:27:11.015Z,93699.81
2024-02-08T23:29:42.265Z,93698.47
2024-02-08T23:32:12.293Z,93702.94
2024-02-08T23:34:42.869Z,93705.03
2024-02-08T23:37:12.375Z,93706.72
2024-02-08T23:39:41.334Z,93704.03
2024-02-08T23:42:10.383Z,93703.00
2024-02-08T23:44:39.382Z,93701.06
2024-02-08T23:47:08.368Z,93696.81
2024-02-08T23:49:36.912Z,93697.38
2024-02-08T23:52:08.341Z,93692.91
2024-02-08T23:54:36.860Z,93701.34
2024-02-08T23:57:05.845Z,93704.16
2024-02-08T23:59:34.682Z,93703.56
